sensor_id;sensor_type;location;lat;lon;timestamp;P1;durP1;ratioP1;P2;durP2;ratioP2
74922;SDS011;64715;44.760;37.678;2023-08-12T00:00:31;10.30;;;4.05;;
74922;SDS011;64715;44.760;37.678;2023-08-12T00:01:32;10.52;;;3.60;;
74922;SDS011;64715;44.760;37.678;2023-08-12T00:02:33;10.10;;;3.47;;
74922;SDS011;64715;44.760;37.678;2023-08-12T00:03:34;12.13;;;4.03;;
74922;SDS011;64715;44.760;37.678;2023-08-12T00:04:35;9.67;;;4.00;;
74922;SDS011;64715;44.760;37.678;2023-08-12T00:05:36;8.73;;;3.85;;
74922;SDS011;64715;44.760;37.678;2023-08-12T00:06:40;9.88;;;3.95;;
74922;SDS011;64715;44.760;37.678;2023-08-12T00:07:42;8.68;;;3.88;;
74922;SDS011;64715;44.760;37.678;2023-08-12T00:08:42;11.35;;;4.32;;
74922;SDS011;64715;44.760;37.678;2023-08-12T00:09:44;10.90;;;4.50;;
74922;SDS011;64715;44.760;37.678;2023-08-12T00:10:45;10.77;;;4.47;;
74922;SDS011;64715;44.760;37.678;2023-08-12T00:11:46;10.63;;;5.10;;
74922;SDS011;64715;44.760;37.678;2023-08-12T00:12:47;10.57;;;4.32;;
74922;SDS011;64715;44.760;37.678;2023-08-12T00:13:48;10.90;;;4.07;;
74922;SDS011;64715;44.760;37.678;2023-08-12T00:14:49;12.27;;;4.37;;
74922;SDS011;64715;44.760;37.678;2023-08-12T00:15:49;10.45;;;4.18;;
74922;SDS011;64715;44.760;37.678;2023-08-12T00:16:52;10.43;;;3.95;;
74922;SDS011;64715;44.760;37.678;2023-08-12T00:17:53;10.27;;;4.85;;
74922;SDS011;64715;44.760;37.678;2023-08-12T00:18:54;10.18;;;4.65;;
74922;SDS011;64715;44.760;37.678;2023-08-12T00:19:55;11.07;;;4.60;;
74922;SDS011;64715;44.760;37.678;2023-08-12T00:20:56;11.52;;;4.90;;
74922;SDS011;64715;44.760;37.678;2023-08-12T00:21:58;11.15;;;4.60;;
74922;SDS011;64715;44.760;37.678;2023-08-12T00:22:59;11.10;;;4.77;;
74922;SDS011;64715;44.760;37.678;2023-08-12T00:24:00;10.90;;;4.78;;
74922;SDS011;64715;44.760;37.678;2023-08-12T00:25:01;12.18;;;4.82;;
74922;SDS011;64715;44.760;37.678;2023-08-12T00:26:02;12.73;;;5.10;;
74922;SDS011;64715;44.760;37.678;2023-08-12T00:27:03;12.48;;;4.90;;
74922;SDS011;64715;44.760;37.678;2023-08-12T00:28:05;10.75;;;5.20;;
74922;SDS011;64715;44.760;37.678;2023-08-12T00:29:06;11.05;;;5.15;;
74922;SDS011;64715;44.760;37.678;2023-08-12T00:30:07;10.73;;;4.80;;
74922;SDS011;64715;44.760;37.678;2023-08-12T00:31:09;13.07;;;5.63;;
74922;SDS011;64715;44.760;37.678;2023-08-12T00:32:10;12.05;;;5.03;;
74922;SDS011;64715;44.760;37.678;2023-08-12T00:33:11;13.20;;;5.40;;
74922;SDS011;64715;44.760;37.678;2023-08-12T00:34:12;11.73;;;5.20;;
74922;SDS011;64715;44.760;37.678;2023-08-12T00:35:13;12.45;;;5.70;;
74922;SDS011;64715;44.760;37.678;2023-08-12T00:36:15;11.98;;;5.60;;
74922;SDS011;64715;44.760;37.678;2023-08-12T00:37:16;18.55;;;5.32;;
74922;SDS011;64715;44.760;37.678;2023-08-12T00:38:17;11.17;;;5.40;;
74922;SDS011;64715;44.760;37.678;2023-08-12T00:39:18;13.63;;;5.22;;
74922;SDS011;64715;44.760;37.678;2023-08-12T00:40:19;12.95;;;5.47;;
74922;SDS011;64715;44.760;37.678;2023-08-12T00:41:20;10.18;;;4.80;;
74922;SDS011;64715;44.760;37.678;2023-08-12T00:42:21;11.13;;;5.00;;
74922;SDS011;64715;44.760;37.678;2023-08-12T00:43:22;13.32;;;4.97;;
74922;SDS011;64715;44.760;37.678;2023-08-12T00:44:23;12.87;;;5.10;;
74922;SDS011;64715;44.760;37.678;2023-08-12T00:45:24;11.20;;;4.80;;
74922;SDS011;64715;44.760;37.678;2023-08-12T00:46:25;12.98;;;5.35;;
74922;SDS011;64715;44.760;37.678;2023-08-12T00:47:27;13.70;;;5.43;;
74922;SDS011;64715;44.760;37.678;2023-08-12T00:48:30;10.55;;;4.88;;
74922;SDS011;64715;44.760;37.678;2023-08-12T00:49:33;13.88;;;5.00;;
74922;SDS011;64715;44.760;37.678;2023-08-12T00:50:35;12.02;;;4.97;;
74922;SDS011;64715;44.760;37.678;2023-08-12T00:51:38;13.40;;;4.88;;
74922;SDS011;64715;44.760;37.678;2023-08-12T00:52:41;10.95;;;5.00;;
74922;SDS011;64715;44.760;37.678;2023-08-12T00:53:43;10.90;;;4.82;;
74922;SDS011;64715;44.760;37.678;2023-08-12T00:54:46;10.87;;;5.40;;
74922;SDS011;64715;44.760;37.678;2023-08-12T00:55:48;10.90;;;4.80;;
74922;SDS011;64715;44.760;37.678;2023-08-12T00:56:49;10.93;;;5.03;;
74922;SDS011;64715;44.760;37.678;2023-08-12T00:57:51;11.90;;;4.78;;
74922;SDS011;64715;44.760;37.678;2023-08-12T00:58:53;12.30;;;5.03;;
74922;SDS011;64715;44.760;37.678;2023-08-12T00:59:55;12.05;;;4.85;;
74922;SDS011;64715;44.760;37.678;2023-08-12T01:00:56;11.75;;;4.65;;
74922;SDS011;64715;44.760;37.678;2023-08-12T01:01:57;11.02;;;4.90;;
74922;SDS011;64715;44.760;37.678;2023-08-12T01:02:59;16.77;;;5.07;;
74922;SDS011;64715;44.760;37.678;2023-08-12T01:04:01;13.35;;;5.13;;
74922;SDS011;64715;44.760;37.678;2023-08-12T01:05:02;13.63;;;5.33;;
74922;SDS011;64715;44.760;37.678;2023-08-12T01:06:03;11.95;;;4.97;;
74922;SDS011;64715;44.760;37.678;2023-08-12T01:07:05;10.80;;;4.72;;
74922;SDS011;64715;44.760;37.678;2023-08-12T01:08:07;11.90;;;5.03;;
74922;SDS011;64715;44.760;37.678;2023-08-12T01:09:07;14.05;;;5.18;;
74922;SDS011;64715;44.760;37.678;2023-08-12T01:10:09;12.70;;;4.88;;
74922;SDS011;64715;44.760;37.678;2023-08-12T01:11:16;14.10;;;5.05;;
74922;SDS011;64715;44.760;37.678;2023-08-12T01:12:32;10.23;;;5.32;;
74922;SDS011;64715;44.760;37.678;2023-08-12T01:13:44;13.40;;;4.90;;
74922;SDS011;64715;44.760;37.678;2023-08-12T01:15:17;11.77;;;5.30;;
74922;SDS011;64715;44.760;37.678;2023-08-12T01:16:25;12.75;;;5.15;;
74922;SDS011;64715;44.760;37.678;2023-08-12T01:17:31;101.25;;;10.70;;
74922;SDS011;64715;44.760;37.678;2023-08-12T01:18:34;58.00;;;9.15;;
74922;SDS011;64715;44.760;37.678;2023-08-12T01:19:37;23.75;;;7.50;;
74922;SDS011;64715;44.760;37.678;2023-08-12T01:20:40;25.30;;;7.95;;
74922;SDS011;64715;44.760;37.678;2023-08-12T01:21:42;17.35;;;7.82;;
74922;SDS011;64715;44.760;37.678;2023-08-12T01:22:44;19.02;;;7.75;;
74922;SDS011;64715;44.760;37.678;2023-08-12T01:23:47;19.27;;;7.80;;
74922;SDS011;64715;44.760;37.678;2023-08-12T01:24:48;17.75;;;7.47;;
74922;SDS011;64715;44.760;37.678;2023-08-12T01:25:51;16.83;;;7.40;;
74922;SDS011;64715;44.760;37.678;2023-08-12T01:26:52;19.27;;;8.15;;
74922;SDS011;64715;44.760;37.678;2023-08-12T01:27:55;18.42;;;7.53;;
74922;SDS011;64715;44.760;37.678;2023-08-12T01:28:56;20.38;;;7.32;;
74922;SDS011;64715;44.760;37.678;2023-08-12T01:29:58;17.00;;;7.90;;
74922;SDS011;64715;44.760;37.678;2023-08-12T01:31:04;17.60;;;7.70;;
74922;SDS011;64715;44.760;37.678;2023-08-12T01:32:14;16.27;;;7.05;;
74922;SDS011;64715;44.760;37.678;2023-08-12T01:34:39;16.13;;;7.60;;
74922;SDS011;64715;44.760;37.678;2023-08-12T01:35:54;14.73;;;7.55;;
74922;SDS011;64715;44.760;37.678;2023-08-12T01:37:03;16.90;;;7.33;;
74922;SDS011;64715;44.760;37.678;2023-08-12T01:38:08;16.08;;;7.80;;
74922;SDS011;64715;44.760;37.678;2023-08-12T01:39:09;17.75;;;7.68;;
74922;SDS011;64715;44.760;37.678;2023-08-12T01:40:14;19.00;;;8.15;;
74922;SDS011;64715;44.760;37.678;2023-08-12T01:41:17;20.13;;;8.20;;
74922;SDS011;64715;44.760;37.678;2023-08-12T01:42:20;17.45;;;7.63;;
74922;SDS011;64715;44.760;37.678;2023-08-12T01:43:21;14.70;;;7.50;;
74922;SDS011;64715;44.760;37.678;2023-08-12T01:44:22;17.38;;;7.78;;
74922;SDS011;64715;44.760;37.678;2023-08-12T01:45:24;16.27;;;7.55;;
74922;SDS011;64715;44.760;37.678;2023-08-12T01:46:25;15.88;;;7.68;;
74922;SDS011;64715;44.760;37.678;2023-08-12T01:47:27;16.80;;;7.87;;
74922;SDS011;64715;44.760;37.678;2023-08-12T01:48:28;18.58;;;7.80;;
74922;SDS011;64715;44.760;37.678;2023-08-12T01:49:29;16.40;;;8.35;;
74922;SDS011;64715;44.760;37.678;2023-08-12T01:50:30;16.48;;;7.88;;
74922;SDS011;64715;44.760;37.678;2023-08-12T01:51:31;19.40;;;7.78;;
74922;SDS011;64715;44.760;37.678;2023-08-12T01:52:32;15.73;;;7.32;;
74922;SDS011;64715;44.760;37.678;2023-08-12T01:53:33;18.03;;;7.90;;
74922;SDS011;64715;44.760;37.678;2023-08-12T01:54:34;16.08;;;7.82;;
74922;SDS011;64715;44.760;37.678;2023-08-12T01:55:35;18.48;;;7.65;;
74922;SDS011;64715;44.760;37.678;2023-08-12T01:56:36;22.13;;;8.27;;
74922;SDS011;64715;44.760;37.678;2023-08-12T01:57:37;16.88;;;7.65;;
74922;SDS011;64715;44.760;37.678;2023-08-12T01:58:39;17.25;;;7.07;;
74922;SDS011;64715;44.760;37.678;2023-08-12T01:59:40;15.93;;;7.20;;
74922;SDS011;64715;44.760;37.678;2023-08-12T02:00:41;17.07;;;7.53;;
74922;SDS011;64715;44.760;37.678;2023-08-12T02:01:42;16.75;;;7.75;;
74922;SDS011;64715;44.760;37.678;2023-08-12T02:02:43;16.13;;;7.55;;
74922;SDS011;64715;44.760;37.678;2023-08-12T02:03:46;19.20;;;7.85;;
74922;SDS011;64715;44.760;37.678;2023-08-12T02:04:47;15.75;;;7.80;;
74922;SDS011;64715;44.760;37.678;2023-08-12T02:05:48;20.00;;;7.80;;
74922;SDS011;64715;44.760;37.678;2023-08-12T02:06:49;17.20;;;7.20;;
74922;SDS011;64715;44.760;37.678;2023-08-12T02:07:50;17.95;;;7.60;;
74922;SDS011;64715;44.760;37.678;2023-08-12T02:08:52;18.65;;;8.15;;
74922;SDS011;64715;44.760;37.678;2023-08-12T02:09:53;17.00;;;7.45;;
74922;SDS011;64715;44.760;37.678;2023-08-12T02:10:54;18.30;;;8.18;;
74922;SDS011;64715;44.760;37.678;2023-08-12T02:11:56;19.50;;;8.00;;
74922;SDS011;64715;44.760;37.678;2023-08-12T02:12:58;16.05;;;7.57;;
74922;SDS011;64715;44.760;37.678;2023-08-12T02:13:59;18.73;;;8.00;;
74922;SDS011;64715;44.760;37.678;2023-08-12T02:14:59;18.57;;;7.43;;
74922;SDS011;64715;44.760;37.678;2023-08-12T02:16:00;17.40;;;8.10;;
74922;SDS011;64715;44.760;37.678;2023-08-12T02:17:02;18.92;;;8.10;;
74922;SDS011;64715;44.760;37.678;2023-08-12T02:18:06;18.00;;;8.10;;
74922;SDS011;64715;44.760;37.678;2023-08-12T02:19:08;18.15;;;8.20;;
74922;SDS011;64715;44.760;37.678;2023-08-12T02:20:09;18.65;;;8.30;;
74922;SDS011;64715;44.760;37.678;2023-08-12T02:21:10;20.20;;;8.32;;
74922;SDS011;64715;44.760;37.678;2023-08-12T02:22:11;17.93;;;8.20;;
74922;SDS011;64715;44.760;37.678;2023-08-12T02:23:12;18.42;;;8.35;;
74922;SDS011;64715;44.760;37.678;2023-08-12T02:24:13;16.95;;;7.80;;
74922;SDS011;64715;44.760;37.678;2023-08-12T02:25:14;16.70;;;8.13;;
74922;SDS011;64715;44.760;37.678;2023-08-12T02:26:15;17.10;;;8.00;;
74922;SDS011;64715;44.760;37.678;2023-08-12T02:27:16;15.45;;;7.72;;
74922;SDS011;64715;44.760;37.678;2023-08-12T02:28:17;18.27;;;7.53;;
74922;SDS011;64715;44.760;37.678;2023-08-12T02:29:18;18.87;;;7.47;;
74922;SDS011;64715;44.760;37.678;2023-08-12T02:30:19;18.15;;;7.78;;
74922;SDS011;64715;44.760;37.678;2023-08-12T02:31:20;20.00;;;9.13;;
74922;SDS011;64715;44.760;37.678;2023-08-12T02:32:21;21.42;;;8.63;;
74922;SDS011;64715;44.760;37.678;2023-08-12T02:33:22;17.70;;;8.27;;
74922;SDS011;64715;44.760;37.678;2023-08-12T02:34:23;20.23;;;8.45;;
74922;SDS011;64715;44.760;37.678;2023-08-12T02:35:25;18.23;;;7.45;;
74922;SDS011;64715;44.760;37.678;2023-08-12T02:36:26;19.57;;;8.50;;
74922;SDS011;64715;44.760;37.678;2023-08-12T02:37:30;20.35;;;8.15;;
74922;SDS011;64715;44.760;37.678;2023-08-12T02:38:31;17.20;;;7.47;;
74922;SDS011;64715;44.760;37.678;2023-08-12T02:39:32;18.05;;;7.93;;
74922;SDS011;64715;44.760;37.678;2023-08-12T02:40:33;17.13;;;7.60;;
74922;SDS011;64715;44.760;37.678;2023-08-12T02:41:34;18.70;;;8.18;;
74922;SDS011;64715;44.760;37.678;2023-08-12T02:42:35;16.60;;;7.73;;
74922;SDS011;64715;44.760;37.678;2023-08-12T02:43:36;17.05;;;7.97;;
74922;SDS011;64715;44.760;37.678;2023-08-12T02:44:37;17.38;;;8.15;;
74922;SDS011;64715;44.760;37.678;2023-08-12T02:45:38;18.98;;;8.95;;
74922;SDS011;64715;44.760;37.678;2023-08-12T02:46:39;19.23;;;8.02;;
74922;SDS011;64715;44.760;37.678;2023-08-12T02:47:40;20.38;;;8.35;;
74922;SDS011;64715;44.760;37.678;2023-08-12T02:48:41;18.93;;;7.60;;
74922;SDS011;64715;44.760;37.678;2023-08-12T02:49:43;16.33;;;7.37;;
74922;SDS011;64715;44.760;37.678;2023-08-12T02:50:44;17.42;;;7.82;;
74922;SDS011;64715;44.760;37.678;2023-08-12T02:51:45;15.18;;;7.43;;
74922;SDS011;64715;44.760;37.678;2023-08-12T02:52:46;18.70;;;7.68;;
74922;SDS011;64715;44.760;37.678;2023-08-12T02:53:47;17.42;;;7.60;;
74922;SDS011;64715;44.760;37.678;2023-08-12T02:54:48;14.95;;;7.55;;
74922;SDS011;64715;44.760;37.678;2023-08-12T02:55:49;17.00;;;7.30;;
74922;SDS011;64715;44.760;37.678;2023-08-12T02:56:50;17.53;;;7.00;;
74922;SDS011;64715;44.760;37.678;2023-08-12T02:57:51;15.00;;;7.20;;
74922;SDS011;64715;44.760;37.678;2023-08-12T02:58:52;19.70;;;7.75;;
74922;SDS011;64715;44.760;37.678;2023-08-12T02:59:53;17.55;;;7.50;;
74922;SDS011;64715;44.760;37.678;2023-08-12T03:00:54;18.27;;;6.93;;
74922;SDS011;64715;44.760;37.678;2023-08-12T03:01:56;18.95;;;7.75;;
74922;SDS011;64715;44.760;37.678;2023-08-12T03:02:56;16.47;;;7.20;;
74922;SDS011;64715;44.760;37.678;2023-08-12T03:03:57;16.92;;;7.20;;
74922;SDS011;64715;44.760;37.678;2023-08-12T03:04:58;15.45;;;7.47;;
74922;SDS011;64715;44.760;37.678;2023-08-12T03:05:59;14.02;;;6.47;;
74922;SDS011;64715;44.760;37.678;2023-08-12T03:07:02;18.88;;;7.05;;
74922;SDS011;64715;44.760;37.678;2023-08-12T03:08:03;14.88;;;6.72;;
74922;SDS011;64715;44.760;37.678;2023-08-12T03:09:05;15.82;;;7.18;;
74922;SDS011;64715;44.760;37.678;2023-08-12T03:10:06;16.27;;;7.30;;
74922;SDS011;64715;44.760;37.678;2023-08-12T03:11:07;16.40;;;6.90;;
74922;SDS011;64715;44.760;37.678;2023-08-12T03:12:08;14.77;;;6.80;;
74922;SDS011;64715;44.760;37.678;2023-08-12T03:13:09;17.52;;;6.85;;
74922;SDS011;64715;44.760;37.678;2023-08-12T03:14:11;12.45;;;6.05;;
74922;SDS011;64715;44.760;37.678;2023-08-12T03:15:12;17.25;;;6.35;;
74922;SDS011;64715;44.760;37.678;2023-08-12T03:16:14;12.80;;;6.13;;
74922;SDS011;64715;44.760;37.678;2023-08-12T03:17:17;15.43;;;6.40;;
74922;SDS011;64715;44.760;37.678;2023-08-12T03:18:18;12.10;;;6.30;;
74922;SDS011;64715;44.760;37.678;2023-08-12T03:19:19;13.18;;;6.47;;
74922;SDS011;64715;44.760;37.678;2023-08-12T03:20:20;13.67;;;6.33;;
74922;SDS011;64715;44.760;37.678;2023-08-12T03:21:21;15.95;;;6.70;;
74922;SDS011;64715;44.760;37.678;2023-08-12T03:22:23;13.45;;;6.20;;
74922;SDS011;64715;44.760;37.678;2023-08-12T03:23:24;12.43;;;6.03;;
74922;SDS011;64715;44.760;37.678;2023-08-12T03:24:24;16.33;;;6.32;;
74922;SDS011;64715;44.760;37.678;2023-08-12T03:25:26;13.18;;;5.60;;
74922;SDS011;64715;44.760;37.678;2023-08-12T03:26:26;12.90;;;6.40;;
74922;SDS011;64715;44.760;37.678;2023-08-12T03:27:30;13.05;;;5.53;;
74922;SDS011;64715;44.760;37.678;2023-08-12T03:28:31;13.07;;;5.77;;
74922;SDS011;64715;44.760;37.678;2023-08-12T03:29:32;12.68;;;6.13;;
74922;SDS011;64715;44.760;37.678;2023-08-12T03:30:34;13.00;;;5.90;;
74922;SDS011;64715;44.760;37.678;2023-08-12T03:31:35;13.15;;;6.03;;
74922;SDS011;64715;44.760;37.678;2023-08-12T03:32:36;12.93;;;6.40;;
74922;SDS011;64715;44.760;37.678;2023-08-12T03:33:38;12.60;;;5.80;;
74922;SDS011;64715;44.760;37.678;2023-08-12T03:34:40;11.88;;;5.80;;
74922;SDS011;64715;44.760;37.678;2023-08-12T03:35:44;11.30;;;6.00;;
74922;SDS011;64715;44.760;37.678;2023-08-12T03:36:49;13.52;;;6.20;;
74922;SDS011;64715;44.760;37.678;2023-08-12T03:37:53;11.38;;;5.93;;
74922;SDS011;64715;44.760;37.678;2023-08-12T03:38:55;10.00;;;6.00;;
74922;SDS011;64715;44.760;37.678;2023-08-12T03:40:00;13.50;;;6.45;;
74922;SDS011;64715;44.760;37.678;2023-08-12T03:41:04;12.80;;;6.18;;
74922;SDS011;64715;44.760;37.678;2023-08-12T03:42:07;11.57;;;6.38;;
74922;SDS011;64715;44.760;37.678;2023-08-12T03:43:08;12.70;;;5.90;;
74922;SDS011;64715;44.760;37.678;2023-08-12T03:44:09;12.32;;;6.40;;
74922;SDS011;64715;44.760;37.678;2023-08-12T03:45:11;11.55;;;6.13;;
74922;SDS011;64715;44.760;37.678;2023-08-12T03:46:12;11.73;;;5.78;;
74922;SDS011;64715;44.760;37.678;2023-08-12T03:47:13;12.50;;;6.17;;
74922;SDS011;64715;44.760;37.678;2023-08-12T03:48:14;11.30;;;6.23;;
74922;SDS011;64715;44.760;37.678;2023-08-12T03:49:16;11.48;;;5.97;;
74922;SDS011;64715;44.760;37.678;2023-08-12T03:50:18;12.57;;;6.10;;
74922;SDS011;64715;44.760;37.678;2023-08-12T03:51:19;15.07;;;6.50;;
74922;SDS011;64715;44.760;37.678;2023-08-12T03:52:20;11.68;;;6.22;;
74922;SDS011;64715;44.760;37.678;2023-08-12T03:53:21;13.18;;;6.30;;
74922;SDS011;64715;44.760;37.678;2023-08-12T03:54:22;11.25;;;6.10;;
74922;SDS011;64715;44.760;37.678;2023-08-12T03:55:23;16.37;;;7.07;;
74922;SDS011;64715;44.760;37.678;2023-08-12T03:56:24;12.85;;;5.65;;
74922;SDS011;64715;44.760;37.678;2023-08-12T03:57:25;15.00;;;6.28;;
74922;SDS011;64715;44.760;37.678;2023-08-12T03:58:26;12.38;;;6.43;;
74922;SDS011;64715;44.760;37.678;2023-08-12T03:59:27;10.65;;;6.15;;
74922;SDS011;64715;44.760;37.678;2023-08-12T04:00:28;11.35;;;6.53;;
74922;SDS011;64715;44.760;37.678;2023-08-12T04:01:33;13.00;;;6.50;;
74922;SDS011;64715;44.760;37.678;2023-08-12T04:02:34;13.23;;;6.47;;
74922;SDS011;64715;44.760;37.678;2023-08-12T04:03:35;13.18;;;6.95;;
74922;SDS011;64715;44.760;37.678;2023-08-12T04:04:36;13.38;;;6.80;;
74922;SDS011;64715;44.760;37.678;2023-08-12T04:05:37;12.50;;;6.85;;
74922;SDS011;64715;44.760;37.678;2023-08-12T04:06:38;12.85;;;6.60;;
74922;SDS011;64715;44.760;37.678;2023-08-12T04:07:39;14.30;;;6.93;;
74922;SDS011;64715;44.760;37.678;2023-08-12T04:08:40;12.10;;;6.90;;
74922;SDS011;64715;44.760;37.678;2023-08-12T04:09:41;14.63;;;6.53;;
74922;SDS011;64715;44.760;37.678;2023-08-12T04:10:44;10.90;;;6.35;;
74922;SDS011;64715;44.760;37.678;2023-08-12T04:11:46;14.00;;;6.28;;
74922;SDS011;64715;44.760;37.678;2023-08-12T04:12:47;15.30;;;6.80;;
74922;SDS011;64715;44.760;37.678;2023-08-12T04:13:48;13.77;;;6.13;;
74922;SDS011;64715;44.760;37.678;2023-08-12T04:14:48;11.33;;;6.50;;
74922;SDS011;64715;44.760;37.678;2023-08-12T04:15:50;12.30;;;6.90;;
74922;SDS011;64715;44.760;37.678;2023-08-12T04:16:53;12.48;;;6.55;;
74922;SDS011;64715;44.760;37.678;2023-08-12T04:17:54;12.35;;;6.68;;
74922;SDS011;64715;44.760;37.678;2023-08-12T04:18:55;12.50;;;7.13;;
74922;SDS011;64715;44.760;37.678;2023-08-12T04:19:57;13.10;;;6.78;;
74922;SDS011;64715;44.760;37.678;2023-08-12T04:20:58;11.37;;;6.17;;
74922;SDS011;64715;44.760;37.678;2023-08-12T04:21:59;12.90;;;7.18;;
74922;SDS011;64715;44.760;37.678;2023-08-12T04:23:00;12.10;;;6.97;;
74922;SDS011;64715;44.760;37.678;2023-08-12T04:24:01;14.38;;;7.28;;
74922;SDS011;64715;44.760;37.678;2023-08-12T04:25:03;12.30;;;7.10;;
74922;SDS011;64715;44.760;37.678;2023-08-12T04:26:04;14.27;;;7.30;;
74922;SDS011;64715;44.760;37.678;2023-08-12T04:27:05;13.10;;;7.45;;
74922;SDS011;64715;44.760;37.678;2023-08-12T04:28:06;11.73;;;7.30;;
74922;SDS011;64715;44.760;37.678;2023-08-12T04:29:08;12.37;;;7.40;;
74922;SDS011;64715;44.760;37.678;2023-08-12T04:30:12;13.15;;;6.90;;
74922;SDS011;64715;44.760;37.678;2023-08-12T04:31:14;13.55;;;7.28;;
74922;SDS011;64715;44.760;37.678;2023-08-12T04:32:16;13.02;;;7.70;;
74922;SDS011;64715;44.760;37.678;2023-08-12T04:33:18;13.50;;;7.60;;
74922;SDS011;64715;44.760;37.678;2023-08-12T04:34:22;13.23;;;6.88;;
74922;SDS011;64715;44.760;37.678;2023-08-12T04:35:25;13.27;;;7.18;;
74922;SDS011;64715;44.760;37.678;2023-08-12T04:36:26;15.93;;;7.50;;
74922;SDS011;64715;44.760;37.678;2023-08-12T04:37:27;13.15;;;7.22;;
74922;SDS011;64715;44.760;37.678;2023-08-12T04:38:29;13.48;;;7.35;;
74922;SDS011;64715;44.760;37.678;2023-08-12T04:39:33;13.30;;;7.70;;
74922;SDS011;64715;44.760;37.678;2023-08-12T04:40:34;13.32;;;7.45;;
74922;SDS011;64715;44.760;37.678;2023-08-12T04:41:38;11.43;;;6.28;;
74922;SDS011;64715;44.760;37.678;2023-08-12T04:42:39;13.43;;;7.65;;
74922;SDS011;64715;44.760;37.678;2023-08-12T04:43:42;15.77;;;7.88;;
74922;SDS011;64715;44.760;37.678;2023-08-12T04:44:43;13.90;;;7.57;;
74922;SDS011;64715;44.760;37.678;2023-08-12T04:45:45;32.72;;;8.15;;
74922;SDS011;64715;44.760;37.678;2023-08-12T04:46:47;13.02;;;7.50;;
74922;SDS011;64715;44.760;37.678;2023-08-12T04:47:49;13.05;;;6.95;;
74922;SDS011;64715;44.760;37.678;2023-08-12T04:48:52;13.00;;;7.10;;
74922;SDS011;64715;44.760;37.678;2023-08-12T04:49:53;12.73;;;7.22;;
74922;SDS011;64715;44.760;37.678;2023-08-12T04:50:54;13.45;;;7.40;;
74922;SDS011;64715;44.760;37.678;2023-08-12T04:52:00;13.85;;;7.10;;
74922;SDS011;64715;44.760;37.678;2023-08-12T04:53:01;14.65;;;7.72;;
74922;SDS011;64715;44.760;37.678;2023-08-12T04:54:02;16.10;;;7.00;;
74922;SDS011;64715;44.760;37.678;2023-08-12T04:55:03;13.07;;;7.20;;
74922;SDS011;64715;44.760;37.678;2023-08-12T04:56:05;13.13;;;6.78;;
74922;SDS011;64715;44.760;37.678;2023-08-12T04:57:06;13.23;;;7.40;;
74922;SDS011;64715;44.760;37.678;2023-08-12T04:58:07;12.38;;;6.90;;
74922;SDS011;64715;44.760;37.678;2023-08-12T04:59:08;13.25;;;7.68;;
74922;SDS011;64715;44.760;37.678;2023-08-12T05:00:09;12.07;;;7.00;;
74922;SDS011;64715;44.760;37.678;2023-08-12T05:01:10;12.75;;;6.93;;
74922;SDS011;64715;44.760;37.678;2023-08-12T05:02:11;13.60;;;7.00;;
74922;SDS011;64715;44.760;37.678;2023-08-12T05:03:12;12.10;;;7.13;;
74922;SDS011;64715;44.760;37.678;2023-08-12T05:04:14;79.20;;;10.38;;
74922;SDS011;64715;44.760;37.678;2023-08-12T05:05:15;13.73;;;6.90;;
74922;SDS011;64715;44.760;37.678;2023-08-12T05:06:16;11.75;;;6.80;;
74922;SDS011;64715;44.760;37.678;2023-08-12T05:07:19;11.32;;;6.20;;
74922;SDS011;64715;44.760;37.678;2023-08-12T05:08:20;12.18;;;6.40;;
74922;SDS011;64715;44.760;37.678;2023-08-12T05:09:21;13.07;;;6.78;;
74922;SDS011;64715;44.760;37.678;2023-08-12T05:10:22;13.68;;;6.22;;
74922;SDS011;64715;44.760;37.678;2023-08-12T05:11:24;11.02;;;6.45;;
74922;SDS011;64715;44.760;37.678;2023-08-12T05:12:25;12.57;;;6.18;;
74922;SDS011;64715;44.760;37.678;2023-08-12T05:13:26;11.97;;;6.43;;
74922;SDS011;64715;44.760;37.678;2023-08-12T05:14:29;14.40;;;6.70;;
74922;SDS011;64715;44.760;37.678;2023-08-12T05:15:30;12.38;;;6.47;;
74922;SDS011;64715;44.760;37.678;2023-08-12T05:16:31;12.30;;;6.22;;
74922;SDS011;64715;44.760;37.678;2023-08-12T05:17:32;12.45;;;6.03;;
74922;SDS011;64715;44.760;37.678;2023-08-12T05:18:33;12.60;;;6.50;;
74922;SDS011;64715;44.760;37.678;2023-08-12T05:19:34;12.15;;;6.53;;
74922;SDS011;64715;44.760;37.678;2023-08-12T05:20:35;14.00;;;6.53;;
74922;SDS011;64715;44.760;37.678;2023-08-12T05:21:36;12.10;;;7.03;;
74922;SDS011;64715;44.760;37.678;2023-08-12T05:22:37;12.23;;;6.38;;
74922;SDS011;64715;44.760;37.678;2023-08-12T05:23:38;11.65;;;6.63;;
74922;SDS011;64715;44.760;37.678;2023-08-12T05:24:39;10.77;;;6.13;;
74922;SDS011;64715;44.760;37.678;2023-08-12T05:25:40;11.30;;;6.25;;
74922;SDS011;64715;44.760;37.678;2023-08-12T05:26:41;15.13;;;6.63;;
74922;SDS011;64715;44.760;37.678;2023-08-12T05:27:43;12.47;;;6.37;;
74922;SDS011;64715;44.760;37.678;2023-08-12T05:28:44;11.07;;;6.63;;
74922;SDS011;64715;44.760;37.678;2023-08-12T05:29:45;12.48;;;6.45;;
74922;SDS011;64715;44.760;37.678;2023-08-12T05:30:45;30.08;;;7.40;;
74922;SDS011;64715;44.760;37.678;2023-08-12T05:31:46;10.40;;;6.35;;
74922;SDS011;64715;44.760;37.678;2023-08-12T05:32:47;11.90;;;6.43;;
74922;SDS011;64715;44.760;37.678;2023-08-12T05:33:48;11.90;;;5.80;;
74922;SDS011;64715;44.760;37.678;2023-08-12T05:34:51;12.10;;;5.70;;
74922;SDS011;64715;44.760;37.678;2023-08-12T05:35:52;10.75;;;6.35;;
74922;SDS011;64715;44.760;37.678;2023-08-12T05:36:53;11.00;;;5.80;;
74922;SDS011;64715;44.760;37.678;2023-08-12T05:37:54;12.13;;;6.30;;
74922;SDS011;64715;44.760;37.678;2023-08-12T05:38:55;11.15;;;6.03;;
74922;SDS011;64715;44.760;37.678;2023-08-12T05:39:56;16.40;;;6.05;;
74922;SDS011;64715;44.760;37.678;2023-08-12T05:40:57;10.93;;;6.27;;
74922;SDS011;64715;44.760;37.678;2023-08-12T05:41:58;11.93;;;6.47;;
74922;SDS011;64715;44.760;37.678;2023-08-12T05:42:59;284.48;;;19.65;;
74922;SDS011;64715;44.760;37.678;2023-08-12T05:44:00;13.13;;;5.47;;
74922;SDS011;64715;44.760;37.678;2023-08-12T05:45:01;13.20;;;6.35;;
74922;SDS011;64715;44.760;37.678;2023-08-12T05:46:04;13.80;;;6.30;;
74922;SDS011;64715;44.760;37.678;2023-08-12T05:47:05;14.43;;;5.80;;
74922;SDS011;64715;44.760;37.678;2023-08-12T05:48:07;11.95;;;6.07;;
74922;SDS011;64715;44.760;37.678;2023-08-12T05:49:08;13.05;;;6.20;;
74922;SDS011;64715;44.760;37.678;2023-08-12T05:50:10;12.18;;;6.10;;
74922;SDS011;64715;44.760;37.678;2023-08-12T05:51:11;12.43;;;6.45;;
74922;SDS011;64715;44.760;37.678;2023-08-12T05:52:11;10.70;;;5.75;;
74922;SDS011;64715;44.760;37.678;2023-08-12T05:53:12;10.00;;;5.30;;
74922;SDS011;64715;44.760;37.678;2023-08-12T05:54:13;10.65;;;5.80;;
74922;SDS011;64715;44.760;37.678;2023-08-12T05:55:14;9.82;;;5.72;;
74922;SDS011;64715;44.760;37.678;2023-08-12T05:56:15;11.07;;;5.90;;
74922;SDS011;64715;44.760;37.678;2023-08-12T05:57:16;10.90;;;5.97;;
74922;SDS011;64715;44.760;37.678;2023-08-12T05:58:17;11.30;;;5.93;;
74922;SDS011;64715;44.760;37.678;2023-08-12T05:59:18;9.83;;;5.73;;
74922;SDS011;64715;44.760;37.678;2023-08-12T06:00:19;11.98;;;6.18;;
74922;SDS011;64715;44.760;37.678;2023-08-12T06:01:20;10.52;;;5.50;;
74922;SDS011;64715;44.760;37.678;2023-08-12T06:02:21;12.00;;;6.40;;